sensor_id;sensor_type;location;lat;lon;timestamp;P1;durP1;ratioP1;P2;durP2;ratioP2
76094;SDS011;64821;13.710;100.604;2023-06-10T00:01:00;16.92;;;8.07;;
76094;SDS011;64821;13.710;100.604;2023-06-10T00:02:04;18.88;;;8.45;;
76094;SDS011;64821;13.710;100.604;2023-06-10T00:03:08;16.48;;;8.00;;
76094;SDS011;64821;13.710;100.604;2023-06-10T00:04:12;15.60;;;8.20;;
76094;SDS011;64821;13.710;100.604;2023-06-10T00:05:16;15.53;;;8.43;;
76094;SDS011;64821;13.710;100.604;2023-06-10T00:06:20;19.13;;;8.68;;
76094;SDS011;64821;13.710;100.604;2023-06-10T00:07:24;18.08;;;8.15;;
76094;SDS011;64821;13.710;100.604;2023-06-10T00:08:28;16.42;;;7.45;;
76094;SDS011;64821;13.710;100.604;2023-06-10T00:09:31;17.88;;;7.70;;
76094;SDS011;64821;13.710;100.604;2023-06-10T00:10:36;20.10;;;7.73;;
76094;SDS011;64821;13.710;100.604;2023-06-10T00:11:42;15.75;;;7.45;;
76094;SDS011;64821;13.710;100.604;2023-06-10T00:12:46;19.55;;;7.50;;
76094;SDS011;64821;13.710;100.604;2023-06-10T00:13:50;16.20;;;7.05;;
76094;SDS011;64821;13.710;100.604;2023-06-10T00:14:54;18.27;;;7.72;;
76094;SDS011;64821;13.710;100.604;2023-06-10T00:15:57;17.17;;;7.30;;
76094;SDS011;64821;13.710;100.604;2023-06-10T00:17:03;15.52;;;7.30;;
76094;SDS011;64821;13.710;100.604;2023-06-10T00:18:07;20.05;;;8.20;;
76094;SDS011;64821;13.710;100.604;2023-06-10T00:19:11;17.98;;;7.57;;
76094;SDS011;64821;13.710;100.604;2023-06-10T00:20:15;18.67;;;7.97;;
76094;SDS011;64821;13.710;100.604;2023-06-10T00:21:21;18.07;;;7.70;;
76094;SDS011;64821;13.710;100.604;2023-06-10T00:22:25;18.70;;;8.68;;
76094;SDS011;64821;13.710;100.604;2023-06-10T00:23:30;16.42;;;8.55;;
76094;SDS011;64821;13.710;100.604;2023-06-10T00:24:36;18.23;;;8.55;;
76094;SDS011;64821;13.710;100.604;2023-06-10T00:25:40;19.75;;;9.23;;
76094;SDS011;64821;13.710;100.604;2023-06-10T00:26:48;18.40;;;9.03;;
76094;SDS011;64821;13.710;100.604;2023-06-10T00:27:52;19.42;;;9.25;;
76094;SDS011;64821;13.710;100.604;2023-06-10T00:28:58;17.85;;;10.02;;
76094;SDS011;64821;13.710;100.604;2023-06-10T00:30:02;18.42;;;9.10;;
76094;SDS011;64821;13.710;100.604;2023-06-10T00:31:07;16.17;;;9.63;;
76094;SDS011;64821;13.710;100.604;2023-06-10T00:32:11;15.50;;;8.70;;
76094;SDS011;64821;13.710;100.604;2023-06-10T00:33:14;19.73;;;9.35;;
76094;SDS011;64821;13.710;100.604;2023-06-10T00:34:18;18.42;;;9.38;;
76094;SDS011;64821;13.710;100.604;2023-06-10T00:35:22;18.15;;;9.88;;
76094;SDS011;64821;13.710;100.604;2023-06-10T00:36:26;19.35;;;9.70;;
76094;SDS011;64821;13.710;100.604;2023-06-10T00:37:29;17.63;;;9.47;;
76094;SDS011;64821;13.710;100.604;2023-06-10T00:38:36;19.05;;;9.45;;
76094;SDS011;64821;13.710;100.604;2023-06-10T00:39:40;16.25;;;8.80;;
76094;SDS011;64821;13.710;100.604;2023-06-10T00:40:47;17.85;;;8.15;;
76094;SDS011;64821;13.710;100.604;2023-06-10T00:41:52;17.60;;;7.55;;
76094;SDS011;64821;13.710;100.604;2023-06-10T00:42:56;14.83;;;7.20;;
76094;SDS011;64821;13.710;100.604;2023-06-10T00:44:00;15.43;;;6.68;;
76094;SDS011;64821;13.710;100.604;2023-06-10T00:45:04;13.85;;;6.28;;
76094;SDS011;64821;13.710;100.604;2023-06-10T00:46:09;13.77;;;5.97;;
76094;SDS011;64821;13.710;100.604;2023-06-10T00:47:14;13.90;;;5.85;;
76094;SDS011;64821;13.710;100.604;2023-06-10T00:48:19;12.77;;;5.43;;
76094;SDS011;64821;13.710;100.604;2023-06-10T00:49:23;15.65;;;5.70;;
76094;SDS011;64821;13.710;100.604;2023-06-10T00:50:26;12.35;;;5.18;;
76094;SDS011;64821;13.710;100.604;2023-06-10T00:51:30;15.25;;;5.30;;
76094;SDS011;64821;13.710;100.604;2023-06-10T00:52:34;15.43;;;5.20;;
76094;SDS011;64821;13.710;100.604;2023-06-10T00:53:39;12.33;;;4.83;;
76094;SDS011;64821;13.710;100.604;2023-06-10T00:54:43;12.15;;;4.85;;
76094;SDS011;64821;13.710;100.604;2023-06-10T00:55:50;11.90;;;4.70;;
76094;SDS011;64821;13.710;100.604;2023-06-10T00:56:56;14.02;;;4.43;;
76094;SDS011;64821;13.710;100.604;2023-06-10T00:58:00;12.45;;;4.80;;
76094;SDS011;64821;13.710;100.604;2023-06-10T00:59:05;14.80;;;5.20;;
76094;SDS011;64821;13.710;100.604;2023-06-10T01:00:09;12.80;;;4.80;;
76094;SDS011;64821;13.710;100.604;2023-06-10T01:01:14;11.10;;;4.50;;
76094;SDS011;64821;13.710;100.604;2023-06-10T01:02:18;16.48;;;5.15;;
76094;SDS011;64821;13.710;100.604;2023-06-10T01:03:22;13.50;;;4.75;;
76094;SDS011;64821;13.710;100.604;2023-06-10T01:04:26;11.50;;;4.50;;
76094;SDS011;64821;13.710;100.604;2023-06-10T01:05:30;12.38;;;4.43;;
76094;SDS011;64821;13.710;100.604;2023-06-10T01:06:35;11.75;;;4.57;;
76094;SDS011;64821;13.710;100.604;2023-06-10T01:07:45;13.40;;;4.50;;
76094;SDS011;64821;13.710;100.604;2023-06-10T01:08:56;12.55;;;4.20;;
76094;SDS011;64821;13.710;100.604;2023-06-10T01:10:05;10.63;;;4.30;;
76094;SDS011;64821;13.710;100.604;2023-06-10T01:11:16;11.52;;;4.10;;
76094;SDS011;64821;13.710;100.604;2023-06-10T01:12:27;12.50;;;4.55;;
76094;SDS011;64821;13.710;100.604;2023-06-10T01:13:38;11.02;;;4.50;;
76094;SDS011;64821;13.710;100.604;2023-06-10T01:14:45;11.57;;;4.40;;
76094;SDS011;64821;13.710;100.604;2023-06-10T01:15:50;9.80;;;4.37;;
76094;SDS011;64821;13.710;100.604;2023-06-10T01:16:55;11.65;;;4.30;;
76094;SDS011;64821;13.710;100.604;2023-06-10T01:17:59;12.15;;;3.83;;
76094;SDS011;64821;13.710;100.604;2023-06-10T01:19:04;11.45;;;4.20;;
76094;SDS011;64821;13.710;100.604;2023-06-10T01:20:08;11.98;;;4.13;;
76094;SDS011;64821;13.710;100.604;2023-06-10T01:21:15;11.73;;;4.10;;
76094;SDS011;64821;13.710;100.604;2023-06-10T01:22:24;10.25;;;4.00;;
76094;SDS011;64821;13.710;100.604;2023-06-10T01:23:28;12.32;;;3.92;;
76094;SDS011;64821;13.710;100.604;2023-06-10T01:24:32;11.32;;;4.38;;
76094;SDS011;64821;13.710;100.604;2023-06-10T01:25:37;11.38;;;3.90;;
76094;SDS011;64821;13.710;100.604;2023-06-10T01:26:42;10.80;;;4.07;;
76094;SDS011;64821;13.710;100.604;2023-06-10T01:27:48;11.27;;;4.03;;
76094;SDS011;64821;13.710;100.604;2023-06-10T01:28:54;9.68;;;4.38;;
76094;SDS011;64821;13.710;100.604;2023-06-10T01:30:04;11.10;;;3.80;;
76094;SDS011;64821;13.710;100.604;2023-06-10T01:31:13;12.07;;;4.38;;
76094;SDS011;64821;13.710;100.604;2023-06-10T01:32:33;11.53;;;4.07;;
76094;SDS011;64821;13.710;100.604;2023-06-10T01:33:45;10.82;;;3.80;;
76094;SDS011;64821;13.710;100.604;2023-06-10T01:34:50;10.93;;;4.10;;
76094;SDS011;64821;13.710;100.604;2023-06-10T01:35:55;9.63;;;3.60;;
76094;SDS011;64821;13.710;100.604;2023-06-10T01:37:02;9.02;;;3.90;;
76094;SDS011;64821;13.710;100.604;2023-06-10T01:38:06;11.17;;;3.90;;
76094;SDS011;64821;13.710;100.604;2023-06-10T01:39:23;12.07;;;4.15;;
76094;SDS011;64821;13.710;100.604;2023-06-10T01:40:28;11.30;;;4.07;;
76094;SDS011;64821;13.710;100.604;2023-06-10T01:41:34;13.50;;;4.40;;
76094;SDS011;64821;13.710;100.604;2023-06-10T01:42:39;11.35;;;4.10;;
76094;SDS011;64821;13.710;100.604;2023-06-10T01:43:43;10.47;;;4.20;;
76094;SDS011;64821;13.710;100.604;2023-06-10T01:44:50;10.07;;;4.03;;
76094;SDS011;64821;13.710;100.604;2023-06-10T01:45:53;12.02;;;3.70;;
76094;SDS011;64821;13.710;100.604;2023-06-10T01:46:59;12.18;;;4.03;;
76094;SDS011;64821;13.710;100.604;2023-06-10T01:48:04;12.23;;;3.83;;
76094;SDS011;64821;13.710;100.604;2023-06-10T01:49:08;12.47;;;4.00;;
76094;SDS011;64821;13.710;100.604;2023-06-10T01:50:12;9.70;;;4.10;;
76094;SDS011;64821;13.710;100.604;2023-06-10T01:51:15;9.63;;;4.05;;
76094;SDS011;64821;13.710;100.604;2023-06-10T01:52:21;12.10;;;3.97;;
76094;SDS011;64821;13.710;100.604;2023-06-10T01:53:27;9.63;;;3.60;;
76094;SDS011;64821;13.710;100.604;2023-06-10T01:54:33;12.10;;;4.23;;
76094;SDS011;64821;13.710;100.604;2023-06-10T01:55:37;8.88;;;3.80;;
76094;SDS011;64821;13.710;100.604;2023-06-10T01:56:41;10.45;;;4.05;;
76094;SDS011;64821;13.710;100.604;2023-06-10T01:57:45;9.63;;;4.22;;
76094;SDS011;64821;13.710;100.604;2023-06-10T01:58:49;13.55;;;4.60;;
76094;SDS011;64821;13.710;100.604;2023-06-10T02:00:02;10.93;;;4.30;;
76094;SDS011;64821;13.710;100.604;2023-06-10T02:01:06;10.77;;;3.80;;
76094;SDS011;64821;13.710;100.604;2023-06-10T02:02:10;12.35;;;3.95;;
76094;SDS011;64821;13.710;100.604;2023-06-10T02:03:14;14.15;;;4.25;;
76094;SDS011;64821;13.710;100.604;2023-06-10T02:04:18;9.57;;;3.90;;
76094;SDS011;64821;13.710;100.604;2023-06-10T02:05:22;10.27;;;3.83;;
76094;SDS011;64821;13.710;100.604;2023-06-10T02:06:25;10.63;;;3.88;;
76094;SDS011;64821;13.710;100.604;2023-06-10T02:07:32;9.57;;;3.75;;
76094;SDS011;64821;13.710;100.604;2023-06-10T02:08:36;10.65;;;3.60;;
76094;SDS011;64821;13.710;100.604;2023-06-10T02:09:40;13.00;;;4.05;;
76094;SDS011;64821;13.710;100.604;2023-06-10T02:10:43;12.97;;;3.97;;
76094;SDS011;64821;13.710;100.604;2023-06-10T02:11:47;11.18;;;3.88;;
76094;SDS011;64821;13.710;100.604;2023-06-10T02:12:51;11.75;;;3.90;;
76094;SDS011;64821;13.710;100.604;2023-06-10T02:13:55;10.38;;;3.85;;
76094;SDS011;64821;13.710;100.604;2023-06-10T02:14:58;10.55;;;3.58;;
76094;SDS011;64821;13.710;100.604;2023-06-10T02:16:02;10.37;;;3.23;;
76094;SDS011;64821;13.710;100.604;2023-06-10T02:17:06;9.55;;;3.50;;
76094;SDS011;64821;13.710;100.604;2023-06-10T02:18:10;8.07;;;3.25;;
76094;SDS011;64821;13.710;100.604;2023-06-10T02:19:16;12.05;;;3.55;;
76094;SDS011;64821;13.710;100.604;2023-06-10T02:20:20;11.10;;;3.58;;
76094;SDS011;64821;13.710;100.604;2023-06-10T02:21:24;11.20;;;3.63;;
76094;SDS011;64821;13.710;100.604;2023-06-10T02:22:28;11.63;;;3.28;;
76094;SDS011;64821;13.710;100.604;2023-06-10T02:23:34;9.68;;;3.30;;
76094;SDS011;64821;13.710;100.604;2023-06-10T02:24:39;9.55;;;3.42;;
76094;SDS011;64821;13.710;100.604;2023-06-10T02:25:43;12.80;;;3.90;;
76094;SDS011;64821;13.710;100.604;2023-06-10T02:26:46;10.87;;;3.83;;
76094;SDS011;64821;13.710;100.604;2023-06-10T02:27:50;10.73;;;3.42;;
76094;SDS011;64821;13.710;100.604;2023-06-10T02:28:54;11.95;;;3.90;;
76094;SDS011;64821;13.710;100.604;2023-06-10T02:29:58;11.15;;;3.78;;
76094;SDS011;64821;13.710;100.604;2023-06-10T02:31:02;11.93;;;3.38;;
76094;SDS011;64821;13.710;100.604;2023-06-10T02:32:06;10.27;;;3.43;;
76094;SDS011;64821;13.710;100.604;2023-06-10T02:33:15;11.80;;;3.75;;
76094;SDS011;64821;13.710;100.604;2023-06-10T02:34:19;11.77;;;4.10;;
76094;SDS011;64821;13.710;100.604;2023-06-10T02:35:23;11.75;;;4.03;;
76094;SDS011;64821;13.710;100.604;2023-06-10T02:36:33;11.27;;;4.40;;
76094;SDS011;64821;13.710;100.604;2023-06-10T02:37:39;12.90;;;3.90;;
76094;SDS011;64821;13.710;100.604;2023-06-10T02:38:45;9.73;;;3.90;;
76094;SDS011;64821;13.710;100.604;2023-06-10T02:39:48;11.93;;;4.25;;
76094;SDS011;64821;13.710;100.604;2023-06-10T02:40:52;9.75;;;3.70;;
76094;SDS011;64821;13.710;100.604;2023-06-10T02:41:58;10.80;;;3.90;;
76094;SDS011;64821;13.710;100.604;2023-06-10T02:43:02;9.30;;;3.80;;
76094;SDS011;64821;13.710;100.604;2023-06-10T02:44:05;10.77;;;3.65;;
76094;SDS011;64821;13.710;100.604;2023-06-10T02:45:09;8.35;;;3.50;;
76094;SDS011;64821;13.710;100.604;2023-06-10T02:46:13;13.38;;;4.13;;
76094;SDS011;64821;13.710;100.604;2023-06-10T02:47:17;9.35;;;3.55;;
76094;SDS011;64821;13.710;100.604;2023-06-10T02:48:26;8.97;;;3.30;;
76094;SDS011;64821;13.710;100.604;2023-06-10T02:49:31;13.40;;;3.75;;
76094;SDS011;64821;13.710;100.604;2023-06-10T02:50:35;10.88;;;3.80;;
76094;SDS011;64821;13.710;100.604;2023-06-10T02:51:38;11.00;;;3.90;;
76094;SDS011;64821;13.710;100.604;2023-06-10T02:52:43;12.00;;;3.50;;
76094;SDS011;64821;13.710;100.604;2023-06-10T02:53:48;9.10;;;3.50;;
76094;SDS011;64821;13.710;100.604;2023-06-10T02:54:52;10.80;;;3.50;;
76094;SDS011;64821;13.710;100.604;2023-06-10T02:55:56;10.88;;;3.75;;
76094;SDS011;64821;13.710;100.604;2023-06-10T02:57:00;11.32;;;3.50;;
76094;SDS011;64821;13.710;100.604;2023-06-10T02:58:04;11.32;;;3.63;;
76094;SDS011;64821;13.710;100.604;2023-06-10T02:59:09;10.03;;;3.40;;
76094;SDS011;64821;13.710;100.604;2023-06-10T03:00:16;12.18;;;3.63;;
76094;SDS011;64821;13.710;100.604;2023-06-10T03:01:22;11.40;;;4.00;;
76094;SDS011;64821;13.710;100.604;2023-06-10T03:02:32;10.57;;;3.88;;
76094;SDS011;64821;13.710;100.604;2023-06-10T03:03:45;13.27;;;3.85;;
76094;SDS011;64821;13.710;100.604;2023-06-10T03:04:49;9.70;;;3.57;;
76094;SDS011;64821;13.710;100.604;2023-06-10T03:05:53;9.32;;;3.50;;
76094;SDS011;64821;13.710;100.604;2023-06-10T03:06:59;11.57;;;3.70;;
76094;SDS011;64821;13.710;100.604;2023-06-10T03:08:03;9.40;;;3.35;;
76094;SDS011;64821;13.710;100.604;2023-06-10T03:09:09;9.35;;;3.50;;
76094;SDS011;64821;13.710;100.604;2023-06-10T03:10:13;8.90;;;3.60;;
76094;SDS011;64821;13.710;100.604;2023-06-10T03:11:17;11.77;;;3.95;;
76094;SDS011;64821;13.710;100.604;2023-06-10T03:12:21;11.00;;;3.88;;
76094;SDS011;64821;13.710;100.604;2023-06-10T03:13:25;10.98;;;3.40;;
76094;SDS011;64821;13.710;100.604;2023-06-10T03:14:30;8.48;;;2.80;;
76094;SDS011;64821;13.710;100.604;2023-06-10T03:15:34;10.13;;;3.00;;
76094;SDS011;64821;13.710;100.604;2023-06-10T03:16:38;10.30;;;3.08;;
76094;SDS011;64821;13.710;100.604;2023-06-10T03:17:42;9.25;;;3.03;;
76094;SDS011;64821;13.710;100.604;2023-06-10T03:18:45;10.95;;;2.95;;
76094;SDS011;64821;13.710;100.604;2023-06-10T03:19:49;9.85;;;2.90;;
76094;SDS011;64821;13.710;100.604;2023-06-10T03:20:56;10.10;;;3.00;;
76094;SDS011;64821;13.710;100.604;2023-06-10T03:22:07;11.10;;;3.20;;
76094;SDS011;64821;13.710;100.604;2023-06-10T03:23:11;10.18;;;3.20;;
76094;SDS011;64821;13.710;100.604;2023-06-10T03:24:17;9.60;;;2.70;;
76094;SDS011;64821;13.710;100.604;2023-06-10T03:25:21;9.95;;;3.20;;
76094;SDS011;64821;13.710;100.604;2023-06-10T03:26:25;9.97;;;2.93;;
76094;SDS011;64821;13.710;100.604;2023-06-10T03:27:29;8.68;;;2.97;;
76094;SDS011;64821;13.710;100.604;2023-06-10T03:28:33;9.75;;;3.15;;
76094;SDS011;64821;13.710;100.604;2023-06-10T03:29:37;11.18;;;3.13;;
76094;SDS011;64821;13.710;100.604;2023-06-10T03:30:46;11.35;;;3.50;;
76094;SDS011;64821;13.710;100.604;2023-06-10T03:31:50;10.97;;;3.43;;
76094;SDS011;64821;13.710;100.604;2023-06-10T03:32:57;10.15;;;2.97;;
76094;SDS011;64821;13.710;100.604;2023-06-10T03:34:01;9.25;;;3.35;;
76094;SDS011;64821;13.710;100.604;2023-06-10T03:35:08;8.68;;;3.58;;
76094;SDS011;64821;13.710;100.604;2023-06-10T03:36:15;11.27;;;3.85;;
76094;SDS011;64821;13.710;100.604;2023-06-10T03:37:20;11.60;;;3.27;;
76094;SDS011;64821;13.710;100.604;2023-06-10T03:38:23;10.32;;;3.15;;
76094;SDS011;64821;13.710;100.604;2023-06-10T03:39:32;9.90;;;3.05;;
76094;SDS011;64821;13.710;100.604;2023-06-10T03:40:36;7.72;;;2.95;;
76094;SDS011;64821;13.710;100.604;2023-06-10T03:41:41;9.98;;;3.30;;
76094;SDS011;64821;13.710;100.604;2023-06-10T03:42:45;11.17;;;3.37;;
76094;SDS011;64821;13.710;100.604;2023-06-10T03:43:48;8.23;;;2.78;;
76094;SDS011;64821;13.710;100.604;2023-06-10T03:44:52;9.73;;;2.90;;
76094;SDS011;64821;13.710;100.604;2023-06-10T03:45:56;10.13;;;2.80;;
76094;SDS011;64821;13.710;100.604;2023-06-10T03:47:00;8.65;;;2.97;;
76094;SDS011;64821;13.710;100.604;2023-06-10T03:48:04;8.83;;;2.70;;
76094;SDS011;64821;13.710;100.604;2023-06-10T03:49:08;9.15;;;2.88;;
76094;SDS011;64821;13.710;100.604;2023-06-10T03:50:12;10.57;;;3.08;;
76094;SDS011;64821;13.710;100.604;2023-06-10T03:51:18;9.90;;;3.30;;
76094;SDS011;64821;13.710;100.604;2023-06-10T03:52:22;10.18;;;2.95;;
76094;SDS011;64821;13.710;100.604;2023-06-10T03:53:26;9.77;;;2.97;;
76094;SDS011;64821;13.710;100.604;2023-06-10T03:54:29;11.30;;;3.40;;
76094;SDS011;64821;13.710;100.604;2023-06-10T03:55:35;10.02;;;3.50;;
76094;SDS011;64821;13.710;100.604;2023-06-10T03:56:39;11.07;;;3.30;;
76094;SDS011;64821;13.710;100.604;2023-06-10T03:57:42;11.43;;;3.33;;
76094;SDS011;64821;13.710;100.604;2023-06-10T03:58:46;13.73;;;3.77;;
76094;SDS011;64821;13.710;100.604;2023-06-10T03:59:50;12.05;;;3.70;;
76094;SDS011;64821;13.710;100.604;2023-06-10T04:00:54;9.77;;;3.65;;
76094;SDS011;64821;13.710;100.604;2023-06-10T04:01:58;9.70;;;3.78;;
76094;SDS011;64821;13.710;100.604;2023-06-10T04:03:02;12.43;;;3.88;;
76094;SDS011;64821;13.710;100.604;2023-06-10T04:04:06;10.27;;;3.20;;
76094;SDS011;64821;13.710;100.604;2023-06-10T04:05:10;10.48;;;3.35;;
76094;SDS011;64821;13.710;100.604;2023-06-10T04:06:14;12.23;;;3.53;;
76094;SDS011;64821;13.710;100.604;2023-06-10T04:07:17;10.55;;;3.30;;
76094;SDS011;64821;13.710;100.604;2023-06-10T04:08:21;10.85;;;3.33;;
76094;SDS011;64821;13.710;100.604;2023-06-10T04:09:25;11.20;;;3.60;;
76094;SDS011;64821;13.710;100.604;2023-06-10T04:10:30;7.85;;;3.15;;
76094;SDS011;64821;13.710;100.604;2023-06-10T04:11:34;9.68;;;3.60;;
76094;SDS011;64821;13.710;100.604;2023-06-10T04:12:38;10.23;;;3.35;;
76094;SDS011;64821;13.710;100.604;2023-06-10T04:13:42;10.75;;;3.42;;
76094;SDS011;64821;13.710;100.604;2023-06-10T04:14:46;10.20;;;3.43;;
76094;SDS011;64821;13.710;100.604;2023-06-10T04:15:49;12.05;;;3.83;;
76094;SDS011;64821;13.710;100.604;2023-06-10T04:16:53;10.32;;;3.58;;
76094;SDS011;64821;13.710;100.604;2023-06-10T04:17:57;10.15;;;3.25;;
76094;SDS011;64821;13.710;100.604;2023-06-10T04:19:01;10.38;;;3.28;;
76094;SDS011;64821;13.710;100.604;2023-06-10T04:20:08;10.80;;;3.70;;
76094;SDS011;64821;13.710;100.604;2023-06-10T04:21:12;9.90;;;3.67;;
76094;SDS011;64821;13.710;100.604;2023-06-10T04:22:16;10.90;;;3.72;;
76094;SDS011;64821;13.710;100.604;2023-06-10T04:23:19;11.25;;;3.80;;
76094;SDS011;64821;13.710;100.604;2023-06-10T04:24:23;11.43;;;3.70;;
76094;SDS011;64821;13.710;100.604;2023-06-10T04:25:27;9.97;;;3.50;;
76094;SDS011;64821;13.710;100.604;2023-06-10T04:26:32;9.05;;;3.83;;
76094;SDS011;64821;13.710;100.604;2023-06-10T04:27:38;8.93;;;3.63;;
76094;SDS011;64821;13.710;100.604;2023-06-10T04:28:42;11.27;;;3.80;;
76094;SDS011;64821;13.710;100.604;2023-06-10T04:29:46;13.32;;;3.65;;
76094;SDS011;64821;13.710;100.604;2023-06-10T04:30:50;10.23;;;3.40;;
76094;SDS011;64821;13.710;100.604;2023-06-10T04:31:54;10.82;;;3.80;;
76094;SDS011;64821;13.710;100.604;2023-06-10T04:32:58;8.90;;;3.85;;
76094;SDS011;64821;13.710;100.604;2023-06-10T04:34:02;11.45;;;3.70;;
76094;SDS011;64821;13.710;100.604;2023-06-10T04:35:06;10.38;;;3.47;;
76094;SDS011;64821;13.710;100.604;2023-06-10T04:36:11;11.57;;;3.33;;
76094;SDS011;64821;13.710;100.604;2023-06-10T04:37:15;11.80;;;3.60;;
76094;SDS011;64821;13.710;100.604;2023-06-10T04:38:18;10.57;;;3.90;;
76094;SDS011;64821;13.710;100.604;2023-06-10T04:39:22;8.95;;;3.03;;
76094;SDS011;64821;13.710;100.604;2023-06-10T04:40:26;10.98;;;3.55;;
76094;SDS011;64821;13.710;100.604;2023-06-10T04:41:30;10.70;;;3.50;;
76094;SDS011;64821;13.710;100.604;2023-06-10T04:42:35;9.80;;;2.90;;
76094;SDS011;64821;13.710;100.604;2023-06-10T04:43:39;12.98;;;3.45;;
76094;SDS011;64821;13.710;100.604;2023-06-10T04:44:43;11.13;;;3.50;;
76094;SDS011;64821;13.710;100.604;2023-06-10T04:45:46;10.02;;;3.00;;
76094;SDS011;64821;13.710;100.604;2023-06-10T04:46:50;11.80;;;3.30;;
76094;SDS011;64821;13.710;100.604;2023-06-10T04:47:54;8.63;;;3.20;;
76094;SDS011;64821;13.710;100.604;2023-06-10T04:48:58;11.18;;;3.70;;
76094;SDS011;64821;13.710;100.604;2023-06-10T04:50:02;9.00;;;3.53;;
76094;SDS011;64821;13.710;100.604;2023-06-10T04:51:06;11.52;;;3.30;;
76094;SDS011;64821;13.710;100.604;2023-06-10T04:52:10;8.23;;;3.23;;
76094;SDS011;64821;13.710;100.604;2023-06-10T04:53:14;8.05;;;3.13;;
76094;SDS011;64821;13.710;100.604;2023-06-10T04:54:18;9.95;;;3.10;;
76094;SDS011;64821;13.710;100.604;2023-06-10T04:55:21;8.32;;;2.95;;
76094;SDS011;64821;13.710;100.604;2023-06-10T04:56:25;8.85;;;2.92;;
76094;SDS011;64821;13.710;100.604;2023-06-10T04:57:31;11.73;;;3.23;;
76094;SDS011;64821;13.710;100.604;2023-06-10T04:58:34;8.57;;;3.20;;
76094;SDS011;64821;13.710;100.604;2023-06-10T04:59:38;11.02;;;3.08;;
76094;SDS011;64821;13.710;100.604;2023-06-10T05:00:42;10.50;;;2.80;;
76094;SDS011;64821;13.710;100.604;2023-06-10T05:01:46;8.13;;;2.95;;
76094;SDS011;64821;13.710;100.604;2023-06-10T05:02:49;7.93;;;2.90;;
76094;SDS011;64821;13.710;100.604;2023-06-10T05:03:53;8.55;;;3.13;;
76094;SDS011;64821;13.710;100.604;2023-06-10T05:04:57;8.60;;;3.10;;
76094;SDS011;64821;13.710;100.604;2023-06-10T05:06:01;7.75;;;2.85;;
76094;SDS011;64821;13.710;100.604;2023-06-10T05:07:05;9.77;;;3.20;;
76094;SDS011;64821;13.710;100.604;2023-06-10T05:08:09;8.97;;;2.30;;
76094;SDS011;64821;13.710;100.604;2023-06-10T05:09:12;7.82;;;2.78;;
76094;SDS011;64821;13.710;100.604;2023-06-10T05:10:16;8.43;;;2.83;;
76094;SDS011;64821;13.710;100.604;2023-06-10T05:11:20;8.27;;;2.92;;
76094;SDS011;64821;13.710;100.604;2023-06-10T05:12:24;7.10;;;3.10;;
76094;SDS011;64821;13.710;100.604;2023-06-10T05:13:29;8.17;;;2.90;;
76094;SDS011;64821;13.710;100.604;2023-06-10T05:14:33;7.45;;;2.72;;
76094;SDS011;64821;13.710;100.604;2023-06-10T05:15:36;8.55;;;2.85;;
76094;SDS011;64821;13.710;100.604;2023-06-10T05:16:40;9.25;;;2.83;;
76094;SDS011;64821;13.710;100.604;2023-06-10T05:17:44;6.93;;;2.38;;
76094;SDS011;64821;13.710;100.604;2023-06-10T05:18:48;7.77;;;2.40;;
76094;SDS011;64821;13.710;100.604;2023-06-10T05:19:52;8.98;;;2.78;;
76094;SDS011;64821;13.710;100.604;2023-06-10T05:20:55;7.82;;;2.53;;
76094;SDS011;64821;13.710;100.604;2023-06-10T05:21:59;7.82;;;2.22;;
76094;SDS011;64821;13.710;100.604;2023-06-10T05:23:03;6.82;;;2.65;;
76094;SDS011;64821;13.710;100.604;2023-06-10T05:24:07;7.37;;;2.47;;
76094;SDS011;64821;13.710;100.604;2023-06-10T05:25:11;7.13;;;2.22;;
76094;SDS011;64821;13.710;100.604;2023-06-10T05:26:15;8.25;;;2.85;;
76094;SDS011;64821;13.710;100.604;2023-06-10T05:27:19;8.27;;;2.47;;
76094;SDS011;64821;13.710;100.604;2023-06-10T05:28:23;8.30;;;2.55;;
76094;SDS011;64821;13.710;100.604;2023-06-10T05:29:28;7.23;;;2.50;;
76094;SDS011;64821;13.710;100.604;2023-06-10T05:30:32;10.38;;;2.42;;
76094;SDS011;64821;13.710;100.604;2023-06-10T05:31:35;7.43;;;2.70;;
76094;SDS011;64821;13.710;100.604;2023-06-10T05:32:39;7.88;;;2.63;;
76094;SDS011;64821;13.710;100.604;2023-06-10T05:33:43;8.25;;;2.70;;
76094;SDS011;64821;13.710;100.604;2023-06-10T05:34:47;9.07;;;2.60;;
76094;SDS011;64821;13.710;100.604;2023-06-10T05:35:50;7.50;;;2.65;;
76094;SDS011;64821;13.710;100.604;2023-06-10T05:36:54;6.72;;;2.42;;
76094;SDS011;64821;13.710;100.604;2023-06-10T05:37:58;8.82;;;2.50;;
76094;SDS011;64821;13.710;100.604;2023-06-10T05:39:05;7.50;;;2.42;;
76094;SDS011;64821;13.710;100.604;2023-06-10T05:40:09;8.80;;;2.60;;
76094;SDS011;64821;13.710;100.604;2023-06-10T05:41:13;7.07;;;2.75;;
76094;SDS011;64821;13.710;100.604;2023-06-10T05:42:17;8.05;;;2.67;;
76094;SDS011;64821;13.710;100.604;2023-06-10T05:43:21;6.80;;;2.35;;
76094;SDS011;64821;13.710;100.604;2023-06-10T05:44:24;9.55;;;2.60;;
76094;SDS011;64821;13.710;100.604;2023-06-10T05:45:30;8.60;;;2.77;;
76094;SDS011;64821;13.710;100.604;2023-06-10T05:46:34;7.55;;;2.60;;
76094;SDS011;64821;13.710;100.604;2023-06-10T05:47:37;7.32;;;2.50;;
76094;SDS011;64821;13.710;100.604;2023-06-10T05:48:41;8.52;;;2.72;;
76094;SDS011;64821;13.710;100.604;2023-06-10T05:49:45;8.15;;;2.92;;
76094;SDS011;64821;13.710;100.604;2023-06-10T05:50:49;6.37;;;2.77;;
76094;SDS011;64821;13.710;100.604;2023-06-10T05:51:53;7.97;;;3.13;;
76094;SDS011;64821;13.710;100.604;2023-06-10T05:52:56;8.13;;;2.85;;
76094;SDS011;64821;13.710;100.604;2023-06-10T05:54:00;9.77;;;3.05;;
76094;SDS011;64821;13.710;100.604;2023-06-10T05:55:04;8.55;;;2.60;;
76094;SDS011;64821;13.710;100.604;2023-06-10T05:56:09;8.83;;;3.00;;
76094;SDS011;64821;13.710;100.604;2023-06-10T05:57:12;8.18;;;2.80;;
76094;SDS011;64821;13.710;100.604;2023-06-10T05:58:16;7.45;;;3.22;;
76094;SDS011;64821;13.710;100.604;2023-06-10T05:59:20;9.50;;;3.10;;
76094;SDS011;64821;13.710;100.604;2023-06-10T06:00:24;9.68;;;3.47;;
76094;SDS011;64821;13.710;100.604;2023-06-10T06:01:29;8.40;;;3.10;;
76094;SDS011;64821;13.710;100.604;2023-06-10T06:02:33;8.43;;;3.00;;
76094;SDS011;64821;13.710;100.604;2023-06-10T06:03:37;9.30;;;3.25;;
76094;SDS011;64821;13.710;100.604;2023-06-10T06:04:41;9.73;;;3.42;;
76094;SDS011;64821;13.710;100.604;2023-06-10T06:05:45;8.90;;;2.85;;
76094;SDS011;64821;13.710;100.604;2023-06-10T06:06:49;11.30;;;3.40;;
76094;SDS011;64821;13.710;100.604;2023-06-10T06:07:52;8.25;;;3.20;;
76094;SDS011;64821;13.710;100.604;2023-06-10T06:08:56;8.32;;;3.35;;
76094;SDS011;64821;13.710;100.604;2023-06-10T06:10:00;9.85;;;2.90;;
76094;SDS011;64821;13.710;100.604;2023-06-10T06:11:04;10.55;;;2.90;;
76094;SDS011;64821;13.710;100.604;2023-06-10T06:12:08;10.60;;;3.43;;
76094;SDS011;64821;13.710;100.604;2023-06-10T06:13:12;9.45;;;3.42;;
76094;SDS011;64821;13.710;100.604;2023-06-10T06:14:16;7.70;;;3.20;;
76094;SDS011;64821;13.710;100.604;2023-06-10T06:15:19;8.45;;;3.40;;